Atwood, Tennessee
Current Conditions -  °F | °C
As of 3:53 AM on Saturday 01 Nov 2014 (Local Time) from KMKL Reporting Station
Clear Clear  
Wind Chill: 27°   Ceiling: Unl
Heat Index: 35°   Visibility: 10mi
Dew Point: 24°   Wind: 12mph
Humidity: 64%   Direction: 330°NNW
Pressure: 30.3"   Gusts: NA
Location:  35.97°N, 88.68°W
Report Text: KMKL 010853Z AUTO 33010KT 10SM CLR 02/M04 A3030 RMK AO2 SLP260 T00171044 53007 FZRANO
Loading
Personal Weather Stations






























Interactive Weather Map
Tropical Storm Tracking
New forecast layout! Learn more

10-Day Weather Forecast

Advertisements
Track Severe Weather on mobile